createdAt,value
2022-12-28T00:00:00.663Z,4.48
2022-12-28T00:02:40.496Z,4.46
2022-12-28T00:05:22.257Z,4.43
2022-12-28T00:08:03.263Z,4.40
2022-12-28T00:11:08.176Z,4.38
2022-12-28T00:13:45.380Z,4.33
2022-12-28T00:16:27.962Z,4.31
2022-12-28T00:19:08.703Z,4.27
2022-12-28T00:21:47.851Z,4.24
2022-12-28T00:24:29.701Z,4.24
2022-12-28T00:27:12.787Z,4.16
2022-12-28T00:29:53.718Z,4.15
2022-12-28T00:32:35.702Z,4.10
2022-12-28T00:35:16.714Z,4.05
2022-12-28T00:37:56.336Z,4.04
2022-12-28T00:40:36.168Z,4.02
2022-12-28T00:43:16.034Z,3.98
2022-12-28T00:45:56.104Z,3.96
2022-12-28T00:48:39.167Z,3.91
2022-12-28T00:51:20.640Z,3.90
2022-12-28T00:54:01.628Z,3.89
2022-12-28T00:56:42.786Z,3.89
2022-12-28T00:59:25.801Z,3.86
2022-12-28T01:02:05.915Z,3.90
2022-12-28T01:04:49.395Z,3.89
2022-12-28T01:07:30.328Z,3.89
2022-12-28T01:10:10.283Z,3.87
2022-12-28T01:12:51.436Z,3.90
2022-12-28T01:15:30.990Z,3.87
2022-12-28T01:18:11.049Z,3.86
2022-12-28T01:20:55.214Z,3.87
2022-12-28T01:23:35.582Z,3.86
2022-12-28T01:26:17.989Z,3.88
2022-12-28T01:28:58.462Z,3.88
2022-12-28T01:31:37.568Z,3.88
2022-12-28T01:34:16.148Z,3.90
2022-12-28T01:36:59.303Z,3.90
2022-12-28T01:39:40.766Z,3.91
2022-12-28T01:42:22.553Z,3.92
2022-12-28T01:45:11.691Z,3.92
2022-12-28T01:47:52.554Z,3.95
2022-12-28T01:50:32.744Z,3.96
2022-12-28T01:53:12.553Z,3.98
2022-12-28T01:55:54.354Z,3.98
2022-12-28T01:58:35.372Z,4.01
2022-12-28T02:01:15.326Z,4.05
2022-12-28T02:03:56.587Z,4.05
2022-12-28T02:06:38.014Z,4.07
2022-12-28T02:09:17.686Z,4.09
2022-12-28T02:11:57.648Z,4.12
2022-12-28T02:14:35.554Z,4.15
2022-12-28T02:17:15.687Z,4.15
2022-12-28T02:19:55.449Z,4.19
2022-12-28T02:22:54.187Z,4.20
2022-12-28T02:25:38.296Z,4.23
2022-12-28T02:28:21.889Z,4.23
2022-12-28T02:31:02.923Z,4.29
2022-12-28T02:33:44.370Z,4.30
2022-12-28T02:36:25.676Z,4.33
2022-12-28T02:39:06.544Z,4.38
2022-12-28T02:41:45.750Z,4.39
2022-12-28T02:44:46.980Z,4.40
2022-12-28T02:47:47.703Z,4.41
2022-12-28T02:50:28.832Z,4.43
2022-12-28T02:53:17.506Z,4.45
2022-12-28T02:56:10.200Z,4.50
2022-12-28T02:59:08.150Z,4.51
2022-12-28T03:02:09.199Z,4.55
2022-12-28T03:04:52.065Z,4.53
2022-12-28T03:07:54.548Z,4.53
2022-12-28T03:10:35.910Z,4.53
2022-12-28T03:13:37.211Z,4.54
2022-12-28T03:16:18.502Z,4.51
2022-12-28T03:19:17.229Z,4.48
2022-12-28T03:22:18.887Z,4.47
2022-12-28T03:25:17.445Z,4.50
2022-12-28T03:28:14.445Z,4.50
2022-12-28T03:31:04.736Z,4.49
2022-12-28T03:33:48.305Z,4.48
2022-12-28T03:36:30.761Z,4.46
2022-12-28T03:39:17.725Z,4.42
2022-12-28T03:42:16.269Z,4.45
2022-12-28T03:44:57.731Z,4.43
2022-12-28T03:47:38.241Z,4.44
2022-12-28T03:50:16.273Z,4.44
2022-12-28T03:52:56.577Z,4.38
2022-12-28T03:55:38.099Z,4.36
2022-12-28T03:58:19.051Z,4.38
2022-12-28T04:00:59.234Z,4.38
2022-12-28T04:03:38.474Z,4.38
2022-12-28T04:06:19.246Z,4.40
2022-12-28T04:09:02.069Z,4.42
2022-12-28T04:11:46.142Z,4.43
2022-12-28T04:14:32.049Z,4.48
2022-12-28T04:17:12.144Z,4.50
2022-12-28T04:19:56.727Z,4.48
2022-12-28T04:22:36.561Z,4.52
2022-12-28T04:25:17.540Z,4.55
2022-12-28T04:27:59.741Z,4.52
2022-12-28T04:31:02.458Z,4.59
2022-12-28T04:33:42.945Z,4.58
2022-12-28T04:36:22.790Z,4.60
2022-12-28T04:39:04.223Z,4.60
2022-12-28T04:41:46.003Z,4.64
2022-12-28T04:44:27.001Z,4.65
2022-12-28T04:47:06.841Z,4.68
2022-12-28T04:49:48.611Z,4.68
2022-12-28T04:52:29.633Z,4.73
2022-12-28T04:55:32.411Z,4.73
2022-12-28T04:58:15.269Z,4.77
2022-12-28T05:01:02.359Z,4.82
2022-12-28T05:03:45.188Z,4.83
2022-12-28T05:06:30.689Z,4.88
2022-12-28T05:09:11.703Z,4.94
2022-12-28T05:11:51.489Z,5.04
2022-12-28T05:14:36.639Z,5.11
2022-12-28T05:17:17.528Z,5.12
2022-12-28T05:19:57.316Z,5.14
2022-12-28T05:22:40.847Z,5.20
2022-12-28T05:25:19.841Z,5.21
2022-12-28T05:27:59.888Z,5.24
2022-12-28T05:30:41.729Z,5.25
2022-12-28T05:33:22.781Z,5.28
2022-12-28T05:36:04.924Z,5.29
2022-12-28T05:38:47.832Z,5.31
2022-12-28T05:41:28.943Z,5.34
2022-12-28T05:44:12.133Z,5.35
2022-12-28T05:46:52.975Z,5.34
2022-12-28T05:49:32.775Z,5.36
2022-12-28T05:52:14.616Z,5.36
2022-12-28T05:54:53.701Z,5.40
2022-12-28T05:57:33.920Z,5.39
2022-12-28T06:00:14.541Z,5.42
2022-12-28T06:02:55.087Z,5.43
2022-12-28T06:05:34.826Z,5.42
2022-12-28T06:08:19.469Z,5.44
2022-12-28T06:11:02.459Z,5.44
2022-12-28T06:13:42.276Z,5.46
2022-12-28T06:16:22.671Z,5.44
2022-12-28T06:19:05.635Z,5.46
2022-12-28T06:21:46.463Z,5.42
2022-12-28T06:24:24.395Z,5.39
2022-12-28T06:27:06.529Z,5.40
2022-12-28T06:29:45.616Z,5.38
2022-12-28T06:32:27.923Z,5.35
2022-12-28T06:35:09.419Z,5.39
2022-12-28T06:37:50.096Z,5.37
2022-12-28T06:40:39.627Z,5.38
2022-12-28T06:43:27.352Z,5.39
2022-12-28T06:46:07.278Z,5.37
2022-12-28T06:48:47.084Z,5.38
2022-12-28T06:51:25.508Z,5.40
2022-12-28T06:54:07.203Z,5.41
2022-12-28T06:56:46.071Z,5.43
2022-12-28T06:59:24.327Z,5.47
2022-12-28T07:02:04.560Z,5.46
2022-12-28T07:04:47.767Z,5.47
2022-12-28T07:07:30.022Z,5.47
2022-12-28T07:10:12.191Z,5.51
2022-12-28T07:12:53.221Z,5.54
2022-12-28T07:15:33.063Z,5.56
2022-12-28T07:18:12.836Z,5.59
2022-12-28T07:20:52.785Z,5.60
2022-12-28T07:23:34.577Z,5.66
2022-12-28T07:26:21.340Z,5.69
2022-12-28T07:29:04.726Z,5.72
2022-12-28T07:31:46.645Z,5.75
2022-12-28T07:34:27.679Z,5.78
2022-12-28T07:37:07.602Z,5.81
2022-12-28T07:39:48.759Z,5.86
2022-12-28T07:42:29.348Z,5.93
2022-12-28T07:45:12.771Z,5.98
2022-12-28T07:47:53.127Z,6.04
2022-12-28T07:50:37.972Z,6.10
2022-12-28T07:53:22.171Z,6.18
2022-12-28T07:56:02.233Z,6.24
2022-12-28T08:01:21.029Z,6.34
2022-12-28T08:04:00.895Z,6.37
2022-12-28T08:06:39.976Z,6.39
2022-12-28T08:09:21.160Z,6.41
2022-12-28T08:12:02.577Z,6.48
2022-12-28T08:14:42.643Z,6.50
2022-12-28T08:17:23.793Z,6.54
2022-12-28T08:20:03.828Z,6.59
2022-12-28T08:22:45.119Z,6.62
2022-12-28T08:25:25.045Z,6.65
2022-12-28T08:28:06.295Z,6.69
2022-12-28T08:30:44.191Z,6.74
2022-12-28T08:33:24.534Z,6.76
2022-12-28T08:36:09.408Z,6.80
2022-12-28T08:38:50.433Z,6.81
2022-12-28T08:41:30.481Z,6.86
2022-12-28T08:44:11.592Z,6.90
2022-12-28T08:46:51.665Z,6.92
2022-12-28T08:49:32.715Z,6.97
2022-12-28T08:52:12.718Z,6.96
2022-12-28T08:54:53.888Z,6.98
2022-12-28T08:57:34.819Z,7.03
2022-12-28T09:00:17.735Z,7.06
2022-12-28T09:03:00.979Z,7.08
2022-12-28T09:05:41.203Z,7.12
2022-12-28T09:08:22.968Z,7.15
2022-12-28T09:11:04.662Z,7.22
2022-12-28T09:13:47.439Z,7.23
2022-12-28T09:16:30.382Z,7.25
2022-12-28T09:19:10.448Z,7.31
2022-12-28T09:21:52.916Z,7.34
2022-12-28T09:24:32.623Z,7.35
2022-12-28T09:27:12.519Z,7.34
2022-12-28T09:29:50.331Z,7.36
2022-12-28T09:32:30.491Z,7.43
2022-12-28T09:35:12.774Z,7.48
2022-12-28T09:37:55.209Z,7.53
2022-12-28T09:40:36.241Z,7.58
2022-12-28T09:43:16.037Z,7.64
2022-12-28T09:45:55.830Z,7.67
2022-12-28T09:48:33.813Z,7.70
2022-12-28T09:51:12.302Z,7.76
2022-12-28T09:53:52.182Z,7.79
2022-12-28T09:56:34.129Z,7.86
2022-12-28T09:59:15.781Z,7.89
2022-12-28T10:01:57.072Z,7.92
2022-12-28T10:04:37.686Z,7.95
2022-12-28T10:07:17.489Z,8.01
2022-12-28T10:09:55.416Z,8.09
2022-12-28T10:12:35.643Z,8.11
2022-12-28T10:15:15.511Z,8.16
2022-12-28T10:17:55.223Z,8.24
2022-12-28T10:20:34.938Z,8.29
2022-12-28T10:23:15.489Z,8.34
2022-12-28T10:25:56.808Z,8.35
2022-12-28T10:28:45.629Z,8.42
2022-12-28T10:31:36.164Z,8.40
2022-12-28T10:34:17.635Z,8.45
2022-12-28T10:37:04.705Z,8.48
2022-12-28T10:39:52.847Z,8.48
2022-12-28T10:42:33.026Z,8.51
2022-12-28T10:45:19.390Z,8.56
2022-12-28T10:47:59.594Z,8.57
2022-12-28T10:50:45.601Z,8.56
2022-12-28T10:53:28.708Z,8.56
2022-12-28T10:56:17.847Z,8.59
2022-12-28T10:59:17.353Z,8.63
2022-12-28T11:02:15.188Z,8.62
2022-12-28T11:04:57.008Z,8.66
2022-12-28T11:07:35.962Z,8.63
2022-12-28T11:10:25.569Z,8.70
2022-12-28T11:13:09.013Z,8.63
2022-12-28T11:15:49.600Z,8.64
2022-12-28T11:18:37.747Z,8.71
2022-12-28T11:21:18.023Z,8.69
2022-12-28T11:23:58.647Z,8.72
2022-12-28T11:26:38.290Z,8.70
2022-12-28T11:29:46.106Z,8.72
2022-12-28T11:32:27.373Z,8.75
2022-12-28T11:35:06.969Z,8.72
2022-12-28T11:37:50.773Z,8.76
2022-12-28T11:40:42.686Z,8.76
2022-12-28T11:43:41.029Z,8.75
2022-12-28T11:46:38.471Z,8.76
2022-12-28T11:49:25.491Z,8.74
2022-12-28T11:52:35.035Z,8.75
2022-12-28T11:55:30.442Z,8.73
2022-12-28T11:58:43.074Z,8.74
2022-12-28T12:01:43.011Z,8.76
2022-12-28T12:04:40.932Z,8.70
2022-12-28T12:07:30.734Z,8.72
2022-12-28T12:10:30.725Z,8.70
2022-12-28T12:13:28.010Z,8.66
2022-12-28T12:16:06.915Z,8.67
2022-12-28T12:18:46.992Z,8.63
2022-12-28T12:21:34.763Z,8.61
2022-12-28T12:24:18.330Z,8.62
2022-12-28T12:26:58.561Z,8.56
2022-12-28T12:29:40.217Z,8.57
2022-12-28T12:32:22.537Z,8.55
2022-12-28T12:35:03.251Z,8.50
2022-12-28T12:37:47.379Z,8.45
2022-12-28T12:40:30.606Z,8.49
2022-12-28T12:43:20.717Z,8.50
2022-12-28T12:46:08.593Z,8.50
2022-12-28T12:48:54.471Z,8.52
2022-12-28T12:51:36.095Z,8.53
2022-12-28T12:54:21.108Z,8.52
2022-12-28T12:57:04.207Z,8.47
2022-12-28T12:59:49.923Z,8.46
2022-12-28T13:02:34.393Z,8.50
2022-12-28T13:05:15.595Z,8.45
2022-12-28T13:07:58.963Z,8.49
2022-12-28T13:10:44.151Z,8.51
2022-12-28T13:13:26.699Z,8.47
2022-12-28T13:16:09.281Z,8.53
2022-12-28T13:18:57.154Z,8.53
2022-12-28T13:21:42.357Z,8.53
2022-12-28T13:24:21.626Z,8.55
2022-12-28T13:27:00.556Z,8.56
2022-12-28T13:29:40.603Z,8.56
2022-12-28T13:32:34.224Z,8.51
2022-12-28T13:35:19.426Z,8.56
2022-12-28T13:38:03.716Z,8.57
2022-12-28T13:40:49.334Z,8.57
2022-12-28T13:43:46.039Z,8.56
2022-12-28T13:46:27.133Z,8.58
2022-12-28T13:49:07.072Z,8.56
2022-12-28T13:51:51.405Z,8.55
2022-12-28T13:54:34.520Z,8.55
2022-12-28T13:57:45.425Z,8.57
2022-12-28T14:00:14.231Z,8.58
2022-12-28T14:02:53.359Z,8.60
2022-12-28T14:05:36.577Z,8.59
2022-12-28T14:08:19.558Z,8.58
2022-12-28T14:11:00.553Z,8.60
2022-12-28T14:13:41.372Z,8.59
2022-12-28T14:16:21.912Z,8.63
2022-12-28T14:19:00.364Z,8.59
2022-12-28T14:21:41.928Z,8.62
2022-12-28T14:24:22.778Z,8.63
2022-12-28T14:27:02.692Z,8.65
2022-12-28T14:29:42.400Z,8.64
2022-12-28T14:32:22.559Z,8.65
2022-12-28T14:35:18.869Z,8.65
2022-12-28T14:38:00.485Z,8.69
2022-12-28T14:40:39.875Z,8.67
2022-12-28T14:43:25.236Z,8.69
2022-12-28T14:46:17.052Z,8.69
2022-12-28T14:48:56.854Z,8.67
2022-12-28T14:51:57.507Z,8.67
2022-12-28T14:54:43.832Z,8.67
2022-12-28T14:57:24.607Z,8.66
2022-12-28T15:00:06.748Z,8.68
2022-12-28T15:02:48.300Z,8.68
2022-12-28T15:05:42.518Z,8.68
2022-12-28T15:08:24.596Z,8.69
2022-12-28T15:13:54.144Z,8.68
2022-12-28T15:16:32.282Z,8.67
2022-12-28T15:19:11.293Z,8.66
2022-12-28T15:21:52.181Z,8.65
2022-12-28T15:24:34.354Z,8.59
2022-12-28T15:27:15.162Z,8.56
2022-12-28T15:30:05.362Z,8.54
2022-12-28T15:32:47.475Z,8.51
2022-12-28T15:35:25.494Z,8.50
2022-12-28T15:38:05.408Z,8.46
2022-12-28T15:40:43.297Z,8.41
2022-12-28T15:43:23.363Z,8.41
2022-12-28T15:46:04.194Z,8.37
2022-12-28T15:48:47.706Z,8.37
2022-12-28T15:51:25.742Z,8.35
2022-12-28T15:54:03.981Z,8.34
2022-12-28T15:56:49.838Z,8.33
2022-12-28T15:59:30.229Z,8.32
2022-12-28T16:02:09.939Z,8.29
2022-12-28T16:04:47.942Z,8.28
2022-12-28T16:07:28.057Z,8.24
2022-12-28T16:10:10.591Z,8.24
2022-12-28T16:12:50.969Z,8.22
2022-12-28T16:15:30.719Z,8.22
2022-12-28T16:18:10.700Z,8.17
2022-12-28T16:20:51.866Z,8.19
2022-12-28T16:23:32.551Z,8.16
2022-12-28T16:26:15.297Z,8.18
2022-12-28T16:28:57.766Z,8.18
2022-12-28T16:31:36.330Z,8.14
2022-12-28T16:34:17.969Z,8.15
2022-12-28T16:36:59.442Z,8.10
2022-12-28T16:39:40.166Z,8.13
2022-12-28T16:42:19.971Z,8.13
2022-12-28T16:44:57.855Z,8.13
2022-12-28T16:47:39.484Z,8.11
2022-12-28T16:50:26.184Z,8.12
2022-12-28T16:53:07.232Z,8.13
2022-12-28T16:55:46.982Z,8.10
2022-12-28T16:58:26.791Z,8.14
2022-12-28T17:01:08.111Z,8.12
2022-12-28T17:03:47.999Z,8.11
2022-12-28T17:06:27.840Z,8.11
2022-12-28T17:09:07.659Z,8.12
2022-12-28T17:11:48.271Z,8.15
2022-12-28T17:14:37.394Z,8.13
2022-12-28T17:17:18.631Z,8.09
2022-12-28T17:19:59.805Z,8.13
2022-12-28T17:22:39.529Z,8.13
2022-12-28T17:25:20.346Z,8.15
2022-12-28T17:27:58.897Z,8.15
2022-12-28T17:30:38.915Z,8.15
2022-12-28T17:33:21.690Z,8.17
2022-12-28T17:35:59.794Z,8.14
2022-12-28T17:38:42.072Z,8.15
2022-12-28T17:41:23.319Z,8.12
2022-12-28T17:44:05.308Z,8.07
2022-12-28T17:46:45.793Z,8.07
2022-12-28T17:49:25.614Z,8.06
2022-12-28T17:52:05.463Z,8.04
2022-12-28T17:54:45.158Z,8.02
2022-12-28T17:57:25.027Z,8.01
2022-12-28T18:00:06.374Z,7.99
2022-12-28T18:02:52.666Z,7.99
2022-12-28T18:05:32.333Z,7.95
2022-12-28T18:08:10.288Z,7.97
2022-12-28T18:10:48.504Z,7.95
2022-12-28T18:13:28.606Z,7.98
2022-12-28T18:16:09.528Z,8.00
2022-12-28T18:18:49.832Z,7.97
2022-12-28T18:21:28.414Z,7.95
2022-12-28T18:24:09.690Z,7.98
2022-12-28T18:26:50.888Z,8.01
2022-12-28T18:29:30.926Z,8.01
2022-12-28T18:32:12.057Z,7.98
2022-12-28T18:34:51.848Z,7.99
2022-12-28T18:37:31.773Z,7.99
2022-12-28T18:40:11.918Z,7.97
2022-12-28T18:42:52.912Z,8.00
2022-12-28T18:45:32.831Z,7.97
2022-12-28T18:48:12.489Z,7.97
2022-12-28T18:50:54.975Z,7.98
2022-12-28T18:53:35.383Z,7.97
2022-12-28T18:56:15.913Z,7.96
2022-12-28T18:58:56.794Z,7.92
2022-12-28T19:04:40.507Z,7.92
2022-12-28T19:07:21.551Z,7.93
2022-12-28T19:10:13.390Z,7.91
2022-12-28T19:12:53.969Z,7.93
2022-12-28T19:15:33.921Z,7.92
2022-12-28T19:18:13.679Z,7.96
2022-12-28T19:20:57.657Z,7.92
2022-12-28T19:23:42.006Z,7.84
2022-12-28T19:26:22.854Z,7.86
2022-12-28T19:29:06.085Z,7.83
2022-12-28T19:31:47.034Z,7.80
2022-12-28T19:34:26.866Z,7.73
2022-12-28T19:37:06.666Z,7.73
2022-12-28T19:39:46.460Z,7.72
2022-12-28T19:42:26.291Z,7.67
2022-12-28T19:45:10.242Z,7.66
2022-12-28T19:47:50.654Z,7.63
2022-12-28T19:50:30.513Z,7.65
2022-12-28T19:53:10.362Z,7.61
2022-12-28T19:55:50.073Z,7.61
2022-12-28T19:58:32.143Z,7.60
2022-12-28T20:01:13.541Z,7.56
2022-12-28T20:03:54.946Z,7.56
2022-12-28T20:06:35.751Z,7.55
2022-12-28T20:09:15.568Z,7.54
2022-12-28T20:11:57.418Z,7.54
2022-12-28T20:14:38.337Z,7.54
2022-12-28T20:17:18.137Z,7.54
2022-12-28T20:19:59.955Z,7.50
2022-12-28T20:22:41.771Z,7.48
2022-12-28T20:25:22.367Z,7.47
2022-12-28T20:28:02.574Z,7.48
2022-12-28T20:30:55.393Z,7.46
2022-12-28T20:33:35.872Z,7.40
2022-12-28T20:36:20.061Z,7.43
2022-12-28T20:39:03.378Z,7.45
2022-12-28T20:42:01.887Z,7.41
2022-12-28T20:44:43.680Z,7.40
2022-12-28T20:47:24.905Z,7.40
2022-12-28T20:50:06.682Z,7.39
2022-12-28T20:52:47.961Z,7.30
2022-12-28T20:55:28.932Z,7.33
2022-12-28T20:58:08.831Z,7.33
2022-12-28T21:00:50.112Z,7.33
2022-12-28T21:03:29.967Z,7.30
2022-12-28T21:06:09.816Z,7.28
2022-12-28T21:08:49.457Z,7.28
2022-12-28T21:11:30.916Z,7.30
2022-12-28T21:14:08.800Z,7.28
2022-12-28T21:16:50.987Z,7.30
2022-12-28T21:19:31.922Z,7.28
2022-12-28T21:22:13.729Z,7.30
2022-12-28T21:24:54.690Z,7.31
2022-12-28T21:27:34.795Z,7.32
2022-12-28T21:30:15.990Z,7.30
2022-12-28T21:32:57.415Z,7.31
2022-12-28T21:35:37.183Z,7.32
2022-12-28T21:38:16.964Z,7.31
2022-12-28T21:41:00.867Z,7.30
2022-12-28T21:43:39.523Z,7.31
2022-12-28T21:46:19.638Z,7.31
2022-12-28T21:49:03.367Z,7.32
2022-12-28T21:51:44.021Z,7.32
2022-12-28T21:54:23.805Z,7.30
2022-12-28T21:57:05.443Z,7.32
2022-12-28T21:59:46.606Z,7.33
2022-12-28T22:02:44.455Z,7.37
2022-12-28T22:05:43.126Z,7.36
2022-12-28T22:08:42.536Z,7.38
2022-12-28T22:11:41.111Z,7.41
2022-12-28T22:14:20.833Z,7.43
2022-12-28T22:17:00.786Z,7.42
2022-12-28T22:19:40.537Z,7.44
2022-12-28T22:22:22.341Z,7.47
2022-12-28T22:25:03.290Z,7.49
2022-12-28T22:27:43.149Z,7.49
2022-12-28T22:30:23.036Z,7.49
2022-12-28T22:33:02.756Z,7.50
2022-12-28T22:35:42.963Z,7.51
2022-12-28T22:38:23.931Z,7.49
2022-12-28T22:41:03.715Z,7.52
2022-12-28T22:43:43.565Z,7.55
2022-12-28T22:46:23.724Z,7.57
2022-12-28T22:49:04.736Z,7.58
2022-12-28T22:51:44.689Z,7.61
2022-12-28T22:54:24.697Z,7.62
2022-12-28T22:57:06.979Z,7.66
2022-12-28T22:59:47.173Z,7.68
2022-12-28T23:02:27.077Z,7.72
2022-12-28T23:05:08.675Z,7.74
2022-12-28T23:07:47.929Z,7.77
2022-12-28T23:10:28.248Z,7.80
2022-12-28T23:13:09.372Z,7.85
2022-12-28T23:15:56.542Z,7.85
2022-12-28T23:18:54.742Z,7.92
2022-12-28T23:21:52.174Z,7.95
2022-12-28T23:24:49.484Z,7.96
2022-12-28T23:27:29.685Z,7.98
2022-12-28T23:30:11.983Z,7.99
2022-12-28T23:32:52.329Z,8.03
2022-12-28T23:35:33.514Z,8.02
2022-12-28T23:38:13.246Z,8.03
2022-12-28T23:41:13.610Z,8.05
2022-12-28T23:43:53.699Z,8.07
2022-12-28T23:46:33.489Z,8.11
2022-12-28T23:49:14.032Z,8.13
2022-12-28T23:51:54.844Z,8.15
2022-12-28T23:54:34.485Z,8.16
2022-12-28T23:57:16.328Z,8.14
2022-12-28T23:59:59.343Z,8.18
